Time;durP1;ratioP1;P1;durP2;ratioP2;P2;SDS_P1;SDS_P2;PMS_P1;PMS_P2;Temp;Humidity;BMP_temperature;BMP_pressure;BME280_temperature;BME280_humidity;BME280_pressure;Samples;Min_cycle;Max_cycle;Signal;HPM_P1;HPM_P2
2022/02/13 00:01:13;;;;;;;19.15;8.68;;;-0.90;99.90;;;-146.41;100.00;57768.22;4996318;28;20046;-67
2022/02/13 00:03:40;;;;;;;19.05;10.30;;;-0.90;99.90;;;-146.41;100.00;57768.22;5000965;28;20069;-68
2022/02/13 00:06:08;;;;;;;18.70;9.25;;;-0.80;99.90;;;-146.41;100.00;57768.22;4998719;28;20055;-67
2022/02/13 00:08:35;;;;;;;21.13;7.75;;;-0.70;99.90;;;-146.41;100.00;57768.22;5002535;28;20050;-67
2022/02/13 00:11:12;;;;;;;17.92;8.13;;;-0.50;99.90;;;-146.41;100.00;57768.22;5004111;28;20148;-67
2022/02/13 00:13:39;;;;;;;17.67;8.68;;;-0.30;99.90;;;-146.41;100.00;57768.22;5002480;28;20085;-68
2022/02/13 00:16:06;;;;;;;25.05;8.95;;;-0.20;99.90;;;-146.41;100.00;57768.22;5001516;28;20107;-67
2022/02/13 00:18:33;;;;;;;15.95;7.43;;;-0.20;99.90;;;-146.41;100.00;57768.22;5001376;28;20096;-67
2022/02/13 00:21:00;;;;;;;18.17;8.70;;;-0.20;99.90;;;-146.41;100.00;57768.22;5000272;28;20125;-67
2022/02/13 00:23:27;;;;;;;27.25;10.00;;;-0.20;99.90;;;-146.41;100.00;57768.22;5003191;28;20089;-67
2022/02/13 00:25:54;;;;;;;19.88;8.73;;;-0.20;99.90;;;-146.41;100.00;57768.22;5001127;28;20134;-68
2022/02/13 00:28:21;;;;;;;17.02;7.15;;;-0.30;99.90;;;-146.41;100.00;57768.22;5000747;28;20143;-67
2022/02/13 00:30:48;;;;;;;18.77;7.95;;;-0.30;99.90;;;-146.41;100.00;57768.22;4998060;28;20050;-68
2022/02/13 00:33:16;;;;;;;15.00;8.07;;;-0.40;99.90;;;-146.41;100.00;57768.22;4997879;28;20141;-68
2022/02/13 00:35:45;;;;;;;22.60;8.95;;;-0.30;99.90;;;-146.41;100.00;57768.22;5001858;28;20137;-67
2022/02/13 00:38:14;;;;;;;20.02;7.72;;;-0.30;99.90;;;-146.41;100.00;57768.22;4999331;28;20057;-68
2022/02/13 00:40:41;;;;;;;20.02;9.05;;;-0.20;99.90;;;-146.41;100.00;57768.22;4998525;28;20133;-68
2022/02/13 00:43:08;;;;;;;17.90;8.20;;;-0.20;99.90;;;-146.41;100.00;57768.22;4996012;28;20054;-68
2022/02/13 00:45:35;;;;;;;22.48;8.70;;;-0.30;99.90;;;-146.41;100.00;57768.22;5003759;28;20042;-68
2022/02/13 00:48:02;;;;;;;18.90;9.02;;;-0.30;99.90;;;-146.41;100.00;57768.22;5001671;28;20042;-67
2022/02/13 00:50:30;;;;;;;16.98;8.07;;;-0.20;99.90;;;-146.41;100.00;57768.22;5003105;28;20074;-67
2022/02/13 00:52:57;;;;;;;17.42;7.93;;;-0.20;99.90;;;-146.41;100.00;57768.22;5004843;28;20160;-68
2022/02/13 00:55:24;;;;;;;16.25;7.95;;;-0.20;99.90;;;-146.41;100.00;57768.22;5006653;28;20389;-69
2022/02/13 00:57:51;;;;;;;16.30;7.95;;;-0.20;99.90;;;-146.41;100.00;57768.22;5003326;28;20419;-68
2022/02/13 01:00:18;;;;;;;17.45;8.48;;;-0.20;99.90;;;-146.41;100.00;57768.22;5003500;28;20125;-67
2022/02/13 01:02:45;;;;;;;19.17;7.72;;;-0.30;99.90;;;-146.41;100.00;57768.22;5004341;28;20588;-67
2022/02/13 01:05:11;;;;;;;18.63;8.30;;;-0.20;99.90;;;-146.41;100.00;57768.22;5002331;28;20125;-67
2022/02/13 01:07:39;;;;;;;14.55;7.32;;;-0.10;99.90;;;-146.41;100.00;57768.22;5004135;28;20137;-67
2022/02/13 01:10:06;;;;;;;11.95;5.50;;;-0.10;99.90;;;-146.41;100.00;57768.22;5003086;28;20129;-67
2022/02/13 01:12:33;;;;;;;15.38;5.78;;;0.20;99.90;;;-146.41;100.00;57768.22;5006116;28;20145;-67
2022/02/13 01:15:00;;;;;;;14.32;6.15;;;0.40;99.90;;;-146.41;100.00;57768.22;5004025;28;20081;-67
2022/02/13 01:17:27;;;;;;;13.15;5.68;;;0.40;99.90;;;-146.41;100.00;57768.22;5002746;28;20566;-67
2022/02/13 01:19:55;;;;;;;13.10;5.93;;;0.60;99.90;;;-146.41;100.00;57768.22;5004438;28;20499;-68
2022/02/13 01:22:22;;;;;;;14.77;5.75;;;0.60;99.90;;;-146.41;100.00;57768.22;5004340;28;20081;-67
2022/02/13 01:24:49;;;;;;;12.00;5.85;;;0.70;99.90;;;-146.41;100.00;57768.22;5005494;28;20133;-68
2022/02/13 01:27:16;;;;;;;13.63;5.22;;;0.60;99.90;;;-146.41;100.00;57768.22;5005854;28;20118;-67
2022/02/13 01:29:42;;;;;;;15.52;6.13;;;0.60;99.90;;;-146.41;100.00;57768.22;5004582;28;20129;-68
2022/02/13 01:32:10;;;;;;;9.80;5.43;;;0.60;99.90;;;-146.41;100.00;57768.22;5030178;28;20069;-67
2022/02/13 01:34:37;;;;;;;12.27;5.80;;;0.60;99.90;;;-146.41;100.00;57768.22;4998774;28;20053;-67
2022/02/13 01:37:04;;;;;;;13.85;5.65;;;0.60;99.90;;;-146.41;100.00;57768.22;5001009;28;20054;-67
2022/02/13 01:39:33;;;;;;;13.02;5.97;;;0.60;99.90;;;-146.41;100.00;57768.22;4998454;28;20058;-67
2022/02/13 01:42:02;;;;;;;14.45;6.18;;;0.60;99.90;;;-146.41;100.00;57768.22;4995894;28;20070;-67
2022/02/13 01:44:32;;;;;;;17.30;6.70;;;0.60;99.90;;;-146.41;100.00;57768.22;5001896;28;20054;-67
2022/02/13 01:47:01;;;;;;;12.25;5.38;;;0.60;99.90;;;-146.41;100.00;57768.22;4996069;28;20062;-67
2022/02/13 01:49:28;;;;;;;13.93;5.85;;;0.50;99.90;;;-146.41;100.00;57768.22;5000166;28;20140;-67
2022/02/13 01:52:00;;;;;;;11.65;6.18;;;0.50;99.90;;;-146.41;100.00;57768.22;4993569;28;20065;-67
2022/02/13 01:54:27;;;;;;;14.13;6.30;;;0.30;99.90;;;-146.41;100.00;57768.22;5000388;28;20168;-67
2022/02/13 01:56:54;;;;;;;10.48;5.57;;;0.20;99.90;;;-146.41;100.00;57768.22;5002742;28;20401;-67
2022/02/13 01:59:23;;;;;;;16.83;6.22;;;0.20;99.90;;;-146.41;100.00;57768.22;4994793;28;20111;-67
2022/02/13 02:01:50;;;;;;;15.88;6.03;;;0.20;99.90;;;-146.41;100.00;57768.22;5003417;28;20045;-67
2022/02/13 02:04:17;;;;;;;12.63;5.90;;;0.20;99.90;;;-146.41;100.00;57768.22;5004244;28;20133;-68
2022/02/13 02:06:44;;;;;;;11.82;6.05;;;0.30;99.90;;;-146.41;100.00;57768.22;5002197;28;20121;-67
2022/02/13 02:09:11;;;;;;;15.20;6.07;;;0.40;99.90;;;-146.41;100.00;57768.22;5004922;28;20125;-67
2022/02/13 02:11:37;;;;;;;14.52;5.55;;;0.40;99.90;;;-146.41;100.00;57768.22;5000074;28;20056;-68
2022/02/13 02:14:04;;;;;;;12.75;6.13;;;0.50;99.90;;;-146.41;100.00;57768.22;5001972;28;20128;-67
2022/02/13 02:16:31;;;;;;;14.43;6.50;;;0.70;99.90;;;-146.41;100.00;57768.22;5003663;28;20499;-67
2022/02/13 02:18:59;;;;;;;12.35;6.15;;;0.90;99.90;;;-146.41;100.00;57768.22;5001176;28;20060;-68
2022/02/13 02:21:26;;;;;;;17.60;6.53;;;1.00;99.90;;;-146.41;100.00;57768.22;4999468;28;20571;-67
2022/02/13 02:23:52;;;;;;;16.25;6.00;;;1.10;99.90;;;-146.41;100.00;57768.22;4997422;28;20129;-67
2022/02/13 02:26:20;;;;;;;14.85;5.82;;;1.00;99.90;;;-146.41;100.00;57768.22;4997754;28;20468;-67
2022/02/13 02:28:47;;;;;;;13.52;6.43;;;1.10;99.90;;;-146.41;100.00;57768.22;4998295;28;20046;-67
2022/02/13 02:31:15;;;;;;;11.38;5.97;;;1.10;99.90;;;-146.41;100.00;57768.22;4994954;28;20144;-67
2022/02/13 02:33:42;;;;;;;13.77;5.90;;;1.20;99.90;;;-146.41;100.00;57768.22;5000941;28;20132;-67
2022/02/13 02:36:19;;;;;;;10.90;5.85;;;1.30;99.90;;;-146.41;100.00;57768.22;4999216;28;20088;-67
2022/02/13 02:38:48;;;;;;;13.65;5.72;;;1.30;99.90;;;-146.41;100.00;57768.22;4995985;28;20050;-68
2022/02/13 02:41:16;;;;;;;14.68;6.18;;;1.30;99.90;;;-146.41;100.00;57768.22;4994463;28;20108;-67
2022/02/13 02:43:43;;;;;;;11.43;5.50;;;1.20;99.90;;;-146.41;100.00;57768.22;5000419;28;20058;-67
2022/02/13 02:46:12;;;;;;;11.10;5.47;;;1.20;99.90;;;-146.41;100.00;57768.22;5000958;28;20058;-68
2022/02/13 02:48:39;;;;;;;13.80;5.60;;;1.30;99.90;;;-146.41;100.00;57768.22;4991547;28;20125;-67
2022/02/13 02:51:07;;;;;;;12.32;6.05;;;1.30;99.90;;;-146.41;100.00;57768.22;5003017;28;20053;-67
2022/02/13 02:53:34;;;;;;;13.80;6.00;;;1.30;99.90;;;-146.41;100.00;57768.22;4997875;28;20590;-67
2022/02/13 02:56:03;;;;;;;14.93;6.03;;;1.40;99.90;;;-146.41;100.00;57768.22;4999364;28;20535;-68
2022/02/13 02:58:30;;;;;;;13.20;6.35;;;1.40;99.90;;;-146.41;100.00;57768.22;5003142;28;20082;-67
2022/02/13 03:00:57;;;;;;;12.93;6.53;;;1.40;99.90;;;-146.41;100.00;57768.22;5001747;28;20121;-67
2022/02/13 03:03:25;;;;;;;13.75;5.93;;;1.50;99.90;;;-146.41;100.00;57768.22;5002341;28;20040;-67
2022/02/13 03:05:52;;;;;;;17.15;6.57;;;1.40;99.90;;;-146.41;100.00;57768.22;5002470;28;20125;-67
2022/02/13 03:08:20;;;;;;;13.95;6.07;;;1.50;99.90;;;-146.41;100.00;57768.22;4998907;28;20467;-67
2022/02/13 03:10:49;;;;;;;15.27;6.30;;;1.50;99.90;;;-146.41;100.00;57768.22;5002234;28;20133;-67
2022/02/13 03:13:20;;;;;;;16.77;6.35;;;1.50;99.90;;;-146.41;100.00;57768.22;5002658;28;20096;-67
2022/02/13 03:15:48;;;;;;;14.93;6.55;;;1.50;99.90;;;-146.41;100.00;57768.22;5029734;28;20057;-68
2022/02/13 03:18:17;;;;;;;14.35;6.57;;;1.40;99.90;;;-146.41;100.00;57768.22;5000512;28;20057;-67
2022/02/13 03:20:49;;;;;;;17.90;7.05;;;1.30;99.90;;;-146.41;100.00;57768.22;4997085;28;20074;-67
2022/02/13 03:23:18;;;;;;;15.60;6.57;;;1.20;99.90;;;-146.41;100.00;57768.22;5000310;28;20368;-67
2022/02/13 03:25:45;;;;;;;14.32;6.00;;;1.20;99.90;;;-146.41;100.00;57768.22;4995869;28;20547;-68
2022/02/13 03:28:12;;;;;;;15.23;6.38;;;1.20;99.90;;;-146.41;100.00;57768.22;4996367;28;20129;-68
2022/02/13 03:30:39;;;;;;;14.80;6.75;;;1.10;99.90;;;-146.41;100.00;57768.22;5003654;28;20073;-68
2022/02/13 03:33:06;;;;;;;17.02;6.15;;;1.10;99.90;;;-146.41;100.00;57768.22;5000781;28;20440;-69
2022/02/13 03:35:33;;;;;;;17.38;7.22;;;1.00;99.90;;;-146.41;100.00;57768.22;4999984;28;20128;-67
2022/02/13 03:38:04;;;;;;;13.68;7.10;;;1.10;99.90;;;-146.41;100.00;57768.22;5001218;28;20056;-67
2022/02/13 03:40:31;;;;;;;11.90;6.10;;;1.00;99.90;;;-146.41;100.00;57768.22;5001385;28;20419;-67
2022/02/13 03:42:59;;;;;;;13.98;6.55;;;1.00;99.90;;;-146.41;100.00;57768.22;4998083;28;20136;-67
2022/02/13 03:45:26;;;;;;;13.20;6.30;;;1.00;99.90;;;-146.41;100.00;57768.22;4999327;28;20082;-67
2022/02/13 03:47:53;;;;;;;16.55;7.40;;;0.90;99.90;;;-146.41;100.00;57768.22;4997777;28;20140;-67
2022/02/13 03:50:21;;;;;;;13.88;6.50;;;0.90;99.90;;;-146.41;100.00;57768.22;5001308;28;20046;-67
2022/02/13 03:52:48;;;;;;;16.73;7.55;;;0.80;99.90;;;-146.41;100.00;57768.22;5002340;28;20050;-67
2022/02/13 03:55:16;;;;;;;13.98;6.65;;;0.80;99.90;;;-146.41;100.00;57768.22;4999917;28;20054;-67
2022/02/13 03:57:44;;;;;;;14.30;7.35;;;0.80;99.90;;;-146.41;100.00;57768.22;4999944;28;20076;-67
2022/02/13 04:00:12;;;;;;;17.92;7.20;;;0.80;99.90;;;-146.41;100.00;57768.22;4999267;28;20137;-67
2022/02/13 04:02:41;;;;;;;13.93;7.20;;;0.90;99.90;;;-146.41;100.00;57768.22;4997429;28;20374;-67
2022/02/13 04:05:09;;;;;;;16.10;7.70;;;0.90;99.90;;;-146.41;100.00;57768.22;4994160;28;20054;-67
2022/02/13 04:07:43;;;;;;;12.48;6.60;;;0.80;99.90;;;-146.41;100.00;57768.22;4997207;28;20269;-67
2022/02/13 04:10:13;;;;;;;13.20;6.75;;;0.80;99.90;;;-146.41;100.00;57768.22;4998152;28;20159;-67
2022/02/13 04:12:41;;;;;;;12.13;6.97;;;0.80;99.90;;;-146.41;100.00;57768.22;4998738;28;20054;-68
2022/02/13 04:15:10;;;;;;;24.00;8.70;;;0.70;99.90;;;-146.41;100.00;57768.22;4994903;28;20165;-67
2022/02/13 04:17:37;;;;;;;18.55;7.57;;;0.70;99.90;;;-146.41;100.00;57768.22;4998732;28;20049;-67
2022/02/13 04:20:06;;;;;;;22.63;8.27;;;0.60;99.90;;;-146.41;100.00;57768.22;4999857;28;20137;-67
2022/02/13 04:22:33;;;;;;;15.68;7.53;;;0.60;99.90;;;-146.41;100.00;57768.22;4999543;28;20133;-67
2022/02/13 04:25:01;;;;;;;14.77;8.43;;;0.60;99.90;;;-146.41;100.00;57768.22;4998740;28;20060;-67
2022/02/13 04:27:28;;;;;;;19.73;8.13;;;0.60;99.90;;;-146.41;100.00;57768.22;4995626;28;20088;-67
2022/02/13 04:29:55;;;;;;;18.35;8.10;;;0.60;99.90;;;-146.41;100.00;57768.22;4997425;28;20129;-68
2022/02/13 04:32:22;;;;;;;16.83;8.52;;;0.50;99.90;;;-146.41;100.00;57768.22;4996376;28;20073;-67
2022/02/13 04:34:49;;;;;;;15.93;7.65;;;0.50;99.90;;;-146.41;100.00;57768.22;4999804;28;20115;-67
2022/02/13 04:37:19;;;;;;;18.50;9.38;;;0.50;99.90;;;-146.41;100.00;57768.22;4996985;28;20141;-67
2022/02/13 04:39:46;;;;;;;23.10;8.60;;;0.50;99.90;;;-146.41;100.00;57768.22;4998901;28;20133;-67
2022/02/13 04:42:13;;;;;;;18.77;8.88;;;0.60;99.90;;;-146.41;100.00;57768.22;4999740;28;20133;-68
2022/02/13 04:44:41;;;;;;;16.70;7.50;;;0.60;99.90;;;-146.41;100.00;57768.22;5000003;28;20141;-68
2022/02/13 04:47:09;;;;;;;19.48;8.95;;;0.60;99.90;;;-146.41;100.00;57768.22;5001353;28;20046;-67
2022/02/13 04:49:36;;;;;;;15.82;8.77;;;0.60;99.90;;;-146.41;100.00;57768.22;4998495;28;20463;-67
2022/02/13 04:52:04;;;;;;;19.08;9.13;;;0.60;99.90;;;-146.41;100.00;57768.22;4999899;28;20149;-67
2022/02/13 04:54:31;;;;;;;15.70;8.05;;;0.60;99.90;;;-146.41;100.00;57768.22;5001050;28;20437;-67
2022/02/13 04:57:01;;;;;;;18.02;8.77;;;0.60;99.90;;;-146.41;100.00;57768.22;4998034;28;20077;-67
2022/02/13 04:59:33;;;;;;;18.10;9.38;;;0.60;99.90;;;-146.41;100.00;57768.22;4999025;28;20058;-67
2022/02/13 05:02:01;;;;;;;14.55;7.68;;;0.60;99.90;;;-146.41;100.00;57768.22;4997384;28;20431;-67
2022/02/13 05:04:30;;;;;;;20.63;8.75;;;0.70;99.90;;;-146.41;100.00;57768.22;4999909;28;20446;-67
2022/02/13 05:06:58;;;;;;;22.92;8.65;;;0.80;99.90;;;-146.41;100.00;57768.22;4997159;28;20431;-67
2022/02/13 05:09:24;;;;;;;15.60;8.73;;;0.80;99.90;;;-146.41;100.00;57768.22;5000176;28;20430;-67
2022/02/13 05:11:51;;;;;;;18.33;9.43;;;0.80;99.90;;;-146.41;100.00;57768.22;4996161;28;20165;-68
2022/02/13 05:14:19;;;;;;;17.23;8.40;;;0.70;99.90;;;-146.41;100.00;57768.22;4999931;28;20086;-67
2022/02/13 05:16:46;;;;;;;18.17;9.43;;;0.70;99.90;;;-146.41;100.00;57768.22;4991393;28;20058;-67
2022/02/13 05:19:13;;;;;;;22.58;9.25;;;0.70;99.90;;;-146.41;100.00;57768.22;4998445;28;20142;-67
2022/02/13 05:21:40;;;;;;;18.58;9.23;;;0.90;99.90;;;-146.41;100.00;57768.22;4999185;28;20213;-67
2022/02/13 05:24:08;;;;;;;18.13;9.40;;;0.90;99.90;;;-146.41;100.00;57768.22;4997340;28;20050;-67
2022/02/13 05:26:36;;;;;;;20.80;9.60;;;0.90;99.90;;;-146.41;100.00;57768.22;4998888;28;20043;-67
2022/02/13 05:29:04;;;;;;;17.23;9.07;;;0.90;99.90;;;-146.41;100.00;57768.22;4999207;28;20130;-67
2022/02/13 05:31:31;;;;;;;15.32;8.63;;;1.00;99.90;;;-146.41;100.00;57768.22;5001299;28;20596;-67
2022/02/13 05:34:01;;;;;;;21.30;9.85;;;1.10;99.90;;;-146.41;100.00;57768.22;4998347;28;20085;-67
2022/02/13 05:36:28;;;;;;;19.83;9.63;;;1.10;99.90;;;-146.41;100.00;57768.22;5001780;28;20144;-68
2022/02/13 05:38:55;;;;;;;15.45;9.30;;;1.10;99.90;;;-146.41;100.00;57768.22;5002546;28;20124;-68
2022/02/13 05:41:23;;;;;;;16.95;8.95;;;1.10;99.90;;;-146.41;100.00;57768.22;5004265;28;20045;-67
2022/02/13 05:43:50;;;;;;;15.82;9.00;;;1.10;99.90;;;-146.41;100.00;57768.22;4993707;28;20125;-67
2022/02/13 05:46:18;;;;;;;18.15;9.43;;;1.10;99.90;;;-146.41;100.00;57768.22;5007157;28;20046;-67
2022/02/13 05:48:46;;;;;;;19.55;9.20;;;1.10;99.90;;;-146.41;100.00;57768.22;5005633;28;20069;-67
2022/02/13 05:51:14;;;;;;;21.40;9.38;;;1.10;99.90;;;-146.41;100.00;57768.22;5001804;28;20069;-67
2022/02/13 05:53:43;;;;;;;18.17;10.05;;;1.00;99.90;;;-146.41;100.00;57768.22;4999699;28;20154;-67
2022/02/13 05:56:11;;;;;;;23.13;9.35;;;1.10;99.90;;;-146.41;100.00;57768.22;4998304;28;20532;-68
2022/02/13 05:58:43;;;;;;;21.98;10.68;;;1.10;99.90;;;-146.41;100.00;57768.22;5005081;28;20137;-67
2022/02/13 06:01:12;;;;;;;25.48;10.63;;;1.20;99.90;;;-146.41;100.00;57768.22;4997681;28;20050;-67
2022/02/13 06:03:39;;;;;;;23.05;10.57;;;1.20;99.90;;;-146.41;100.00;57768.22;5001034;28;20047;-68
2022/02/13 06:06:06;;;;;;;19.50;10.25;;;1.20;99.90;;;-146.41;100.00;57768.22;5000071;28;20474;-67
2022/02/13 06:08:32;;;;;;;21.02;10.10;;;1.20;99.90;;;-146.41;100.00;57768.22;4999390;28;20052;-67
2022/02/13 06:11:00;;;;;;;18.88;9.80;;;1.20;99.90;;;-146.41;100.00;57768.22;5003995;28;20092;-68
2022/02/13 06:13:28;;;;;;;20.15;10.70;;;1.30;99.90;;;-146.41;100.00;57768.22;4997152;28;20096;-67
2022/02/13 06:15:55;;;;;;;19.45;11.73;;;1.30;99.90;;;-146.41;100.00;57768.22;4997139;28;20146;-68
2022/02/13 06:18:22;;;;;;;22.55;10.05;;;1.30;99.90;;;-146.41;100.00;57768.22;5033065;28;20133;-68
2022/02/13 06:20:51;;;;;;;20.55;12.00;;;1.30;99.90;;;-146.41;100.00;57768.22;5001763;28;20479;-67
2022/02/13 06:23:18;;;;;;;19.75;10.02;;;1.30;99.90;;;-146.41;100.00;57768.22;5002662;28;20155;-67
2022/02/13 06:25:45;;;;;;;22.08;9.75;;;1.40;99.90;;;-146.41;100.00;57768.22;5002368;28;20136;-67
2022/02/13 06:28:13;;;;;;;24.33;11.60;;;1.40;99.90;;;-146.41;100.00;57768.22;5001820;28;20532;-67
2022/02/13 06:30:41;;;;;;;19.38;10.20;;;1.50;99.90;;;-146.41;100.00;57768.22;4999290;28;20116;-68
2022/02/13 06:33:08;;;;;;;18.75;10.13;;;1.50;99.90;;;-146.41;100.00;57768.22;5003504;28;20201;-68
2022/02/13 06:35:35;;;;;;;18.65;10.25;;;1.50;99.90;;;-146.41;100.00;57768.22;5000219;28;20053;-67
2022/02/13 06:38:03;;;;;;;21.52;10.57;;;1.50;99.90;;;-146.41;100.00;57768.22;5001681;28;20145;-67
2022/02/13 06:40:30;;;;;;;19.45;10.75;;;1.60;99.90;;;-146.41;100.00;57768.22;5000835;28;20224;-68
2022/02/13 06:42:57;;;;;;;20.95;9.75;;;1.60;99.90;;;-146.41;100.00;57768.22;5000861;28;20137;-67
2022/02/13 06:45:24;;;;;;;20.75;10.63;;;1.60;99.90;;;-146.41;100.00;57768.22;4999397;28;20156;-68
2022/02/13 06:47:52;;;;;;;23.55;11.02;;;1.70;99.90;;;-146.41;100.00;57768.22;5001529;28;20490;-68
2022/02/13 06:50:19;;;;;;;23.75;11.30;;;1.70;99.90;;;-146.41;100.00;57768.22;4999241;28;20129;-68
2022/02/13 06:52:46;;;;;;;24.25;11.30;;;1.80;99.90;;;-146.41;100.00;57768.22;4999341;28;20141;-67
2022/02/13 06:55:14;;;;;;;20.15;10.20;;;1.80;99.90;;;-146.41;100.00;57768.22;4994637;28;20050;-68
2022/02/13 06:57:49;;;;;;;21.70;10.40;;;1.80;99.90;;;-146.41;100.00;57768.22;4999350;28;20124;-67
2022/02/13 07:00:18;;;;;;;23.88;12.32;;;1.90;99.90;;;-146.41;100.00;57768.22;5013531;28;20046;-66
2022/02/13 07:02:45;;;;;;;27.45;11.57;;;2.00;99.90;;;-146.41;100.00;57768.22;4997548;28;20078;-66
2022/02/13 07:05:14;;;;;;;25.60;11.35;;;1.90;99.90;;;-146.41;100.00;57768.22;4998988;28;20112;-66
2022/02/13 07:07:42;;;;;;;27.75;12.82;;;2.00;99.90;;;-146.41;100.00;57768.22;5001873;28;20152;-68
2022/02/13 07:10:12;;;;;;;24.83;11.88;;;2.00;99.90;;;-146.41;100.00;57768.22;4997774;28;20053;-67
2022/02/13 07:12:39;;;;;;;21.10;10.85;;;2.10;99.90;;;-146.41;100.00;57768.22;5003835;28;20045;-67
2022/02/13 07:15:07;;;;;;;26.50;11.70;;;2.20;99.90;;;-146.41;100.00;57768.22;5003162;28;20099;-67
2022/02/13 07:17:36;;;;;;;24.10;10.80;;;2.20;99.90;;;-146.41;100.00;57768.22;5003085;28;20058;-67
2022/02/13 07:20:05;;;;;;;21.90;10.68;;;2.20;99.90;;;-146.41;100.00;57768.22;4996213;28;20256;-67
2022/02/13 07:22:32;;;;;;;19.98;11.30;;;2.30;99.90;;;-146.41;100.00;57768.22;4997597;28;20493;-68
2022/02/13 07:24:59;;;;;;;24.58;10.32;;;2.40;99.90;;;-146.41;100.00;57768.22;5002358;28;20417;-67
2022/02/13 07:27:27;;;;;;;21.98;10.38;;;2.40;99.90;;;-146.41;100.00;57768.22;5001925;28;20081;-67
2022/02/13 07:29:54;;;;;;;22.30;10.38;;;2.50;99.90;;;-146.41;100.00;57768.22;5002025;28;20124;-67
2022/02/13 07:32:21;;;;;;;36.53;10.45;;;2.50;99.90;;;-146.41;100.00;57768.22;4998560;28;20379;-66
2022/02/13 07:34:48;;;;;;;28.55;11.65;;;2.60;99.90;;;-146.41;100.00;57768.22;5000189;28;20447;-68
2022/02/13 07:37:15;;;;;;;21.38;11.25;;;2.60;99.90;;;-146.41;100.00;57768.22;5000369;28;20133;-67
2022/02/13 07:39:42;;;;;;;23.13;11.57;;;2.50;99.90;;;-146.41;100.00;57768.22;5002240;28;20137;-67
2022/02/13 07:42:10;;;;;;;29.33;13.32;;;2.50;99.90;;;-146.41;100.00;57768.22;4995844;28;20197;-67
2022/02/13 07:44:40;;;;;;;24.63;12.13;;;2.50;99.90;;;-146.41;100.00;57768.22;5002177;28;20064;-67
2022/02/13 07:47:08;;;;;;;24.77;11.85;;;2.60;99.90;;;-146.41;100.00;57768.22;4996662;28;20058;-67
2022/02/13 07:49:35;;;;;;;21.17;11.02;;;2.60;99.90;;;-146.41;100.00;57768.22;5001657;28;20462;-67
2022/02/13 07:52:02;;;;;;;22.05;10.65;;;2.60;99.90;;;-146.41;100.00;57768.22;4999854;28;20410;-67
2022/02/13 07:54:29;;;;;;;27.88;11.65;;;2.60;99.90;;;-146.41;100.00;57768.22;4999445;28;20137;-67
2022/02/13 07:56:56;;;;;;;21.88;10.98;;;2.70;99.90;;;-146.41;100.00;57768.22;5002354;28;20237;-67
2022/02/13 07:59:23;;;;;;;25.08;12.35;;;2.70;99.90;;;-146.41;100.00;57768.22;5000590;28;20093;-67
2022/02/13 08:01:50;;;;;;;26.85;11.73;;;2.80;99.90;;;-146.41;100.00;57768.22;5001979;28;20152;-67
2022/02/13 08:04:17;;;;;;;20.70;10.25;;;2.90;99.90;;;-146.41;100.00;57768.22;5001300;28;20078;-67
2022/02/13 08:06:44;;;;;;;21.50;11.18;;;3.00;99.90;;;-146.41;100.00;57768.22;4998835;28;20133;-67
2022/02/13 08:09:13;;;;;;;19.02;10.43;;;3.10;99.90;;;-146.41;100.00;57768.22;5000581;28;20445;-68
2022/02/13 08:11:40;;;;;;;23.60;10.05;;;3.10;99.90;;;-146.41;100.00;57768.22;5000215;28;20130;-67
2022/02/13 08:14:07;;;;;;;19.63;10.70;;;3.20;99.90;;;-146.41;100.00;57768.22;5003279;28;20128;-67
2022/02/13 08:16:34;;;;;;;22.15;10.50;;;3.20;99.90;;;-146.41;100.00;57768.22;5003292;28;20138;-67
2022/02/13 08:19:01;;;;;;;18.50;10.00;;;3.20;99.90;;;-146.41;100.00;57768.22;5000400;28;20090;-67
2022/02/13 08:21:28;;;;;;;21.10;10.85;;;3.20;99.90;;;-146.41;100.00;57768.22;5000482;28;20143;-67
2022/02/13 08:23:56;;;;;;;21.10;10.80;;;3.30;99.90;;;-146.41;100.00;57768.22;4999838;28;20038;-67
2022/02/13 08:26:23;;;;;;;25.77;10.52;;;3.50;99.90;;;-146.41;100.00;57768.22;5002817;28;20437;-67
2022/02/13 08:28:51;;;;;;;18.45;10.10;;;3.60;99.90;;;-146.41;100.00;57768.22;5001960;28;20588;-67
2022/02/13 08:31:19;;;;;;;19.63;10.38;;;3.70;99.90;;;-146.41;100.00;57768.22;5000406;28;20432;-67
2022/02/13 08:33:47;;;;;;;24.65;10.50;;;3.80;99.90;;;-146.41;100.00;57768.22;4999904;28;20458;-67
2022/02/13 08:36:15;;;;;;;25.88;10.43;;;3.80;99.90;;;-146.41;100.00;57768.22;4997160;28;20086;-67
2022/02/13 08:38:42;;;;;;;20.60;10.05;;;3.90;99.90;;;-146.41;100.00;57768.22;4999707;28;20052;-67
2022/02/13 08:41:09;;;;;;;29.73;11.38;;;4.00;99.90;;;-146.41;100.00;57768.22;4998924;28;20455;-67
2022/02/13 08:43:36;;;;;;;18.98;10.38;;;4.10;99.90;;;-146.41;100.00;57768.22;4999253;28;20137;-67
2022/02/13 08:46:03;;;;;;;25.60;10.98;;;4.10;99.90;;;-146.41;100.00;57768.22;5000668;28;20051;-67
2022/02/13 08:48:30;;;;;;;18.25;9.10;;;4.20;99.90;;;-146.41;100.00;57768.22;4999670;28;20160;-67
2022/02/13 08:50:57;;;;;;;28.27;10.48;;;4.30;99.90;;;-146.41;100.00;57768.22;5000498;28;20077;-67
2022/02/13 08:53:25;;;;;;;22.42;10.60;;;4.40;99.90;;;-146.41;100.00;57768.22;4999344;28;20141;-67
2022/02/13 08:55:52;;;;;;;24.20;11.18;;;4.50;99.90;;;-146.41;100.00;57768.22;4996087;28;20081;-68
2022/02/13 08:58:19;;;;;;;25.38;9.93;;;4.60;99.90;;;-146.41;100.00;57768.22;5000826;28;20081;-67
2022/02/13 09:00:46;;;;;;;18.65;9.18;;;4.70;99.90;;;-146.41;100.00;57768.22;4997092;28;20077;-67
2022/02/13 09:03:13;;;;;;;20.85;9.70;;;4.70;99.90;;;-146.41;100.00;57768.22;5000323;28;20140;-67
2022/02/13 09:05:40;;;;;;;22.52;10.07;;;4.70;99.90;;;-146.41;100.00;57768.22;4998980;28;20038;-67
2022/02/13 09:08:08;;;;;;;22.15;9.93;;;4.80;99.90;;;-146.41;100.00;57768.22;4999695;28;20050;-67
2022/02/13 09:10:37;;;;;;;21.15;9.60;;;4.90;99.90;;;-146.41;100.00;57768.22;4999977;28;20522;-68
2022/02/13 09:13:05;;;;;;;24.17;10.30;;;5.10;99.90;;;-146.41;100.00;57768.22;5000112;28;20132;-68
2022/02/13 09:15:32;;;;;;;24.40;10.13;;;5.30;99.90;;;-146.41;100.00;57768.22;5002912;28;20046;-67
2022/02/13 09:17:59;;;;;;;24.23;9.57;;;5.40;99.90;;;-146.41;100.00;57768.22;4996904;28;20394;-67
2022/02/13 09:20:26;;;;;;;17.70;8.70;;;5.50;99.90;;;-146.41;100.00;57768.22;5001332;28;20073;-67
2022/02/13 09:22:54;;;;;;;24.38;10.73;;;5.50;99.90;;;-146.41;100.00;57768.22;5008725;28;20440;-68
2022/02/13 09:25:20;;;;;;;25.63;10.20;;;5.60;99.90;;;-146.41;100.00;57768.22;5002543;28;20576;-67
2022/02/13 09:27:47;;;;;;;25.88;9.98;;;5.70;99.90;;;-146.41;100.00;57768.22;5002841;28;20126;-67
2022/02/13 09:30:14;;;;;;;28.63;9.23;;;5.70;99.90;;;-146.41;100.00;57768.22;5002268;28;20129;-67
2022/02/13 09:32:41;;;;;;;22.75;10.40;;;5.80;99.90;;;-146.41;100.00;57768.22;5002188;28;20100;-68
2022/02/13 09:35:10;;;;;;;24.10;9.07;;;5.80;99.90;;;-146.41;100.00;57768.22;5002987;28;20108;-67
2022/02/13 09:37:37;;;;;;;18.13;9.43;;;5.80;99.90;;;-146.41;100.00;57768.22;5001223;28;20138;-67
2022/02/13 09:40:05;;;;;;;23.40;10.23;;;6.00;99.90;;;-146.41;100.00;57768.22;5003230;28;20053;-68
2022/02/13 09:42:33;;;;;;;28.27;10.30;;;6.10;99.90;;;-146.41;100.00;57768.22;5002109;28;20229;-67
2022/02/13 09:45:00;;;;;;;24.65;11.23;;;6.10;99.90;;;-146.41;100.00;57768.22;4999452;28;20074;-67
2022/02/13 09:47:28;;;;;;;23.35;10.02;;;6.10;99.90;;;-146.41;100.00;57768.22;4970591;28;20077;-66
2022/02/13 09:49:56;;;;;;;20.00;9.60;;;6.10;99.90;;;-146.41;100.00;57768.22;4984167;28;20058;-68
2022/02/13 09:52:24;;;;;;;20.70;9.80;;;6.10;99.90;;;-146.41;100.00;57768.22;4978619;28;20096;-67
2022/02/13 09:54:51;;;;;;;22.98;9.57;;;6.30;99.90;;;-146.41;100.00;57768.22;4981688;28;20435;-67
2022/02/13 10:00:04;;;;;;;20.52;9.40;;;6.20;99.90;;;-146.41;100.00;57768.22;4981354;28;20136;-67
2022/02/13 10:02:32;;;;;;;21.83;8.20;;;6.30;99.90;;;-146.41;100.00;57768.22;4972765;28;20109;-67